Time;durP1;ratioP1;P1;durP2;ratioP2;P2;SDS_P1;SDS_P2;PMS_P1;PMS_P2;Temp;Humidity;BMP_temperature;BMP_pressure;BME280_temperature;BME280_humidity;BME280_pressure;Samples;Min_cycle;Max_cycle;Signal;HPM_P1;HPM_P2
2023/08/22 00:01:54;;;;;;;19.93;18.40;;;;;;;16.36;100.00;102069.25;5088710;28;20495;-43
2023/08/22 00:04:22;;;;;;;16.77;15.73;;;;;;;16.36;100.00;102056.63;5089335;28;20589;-42
2023/08/22 00:06:49;;;;;;;18.00;17.10;;;;;;;16.36;100.00;102059.31;5089978;28;20445;-45
2023/08/22 00:09:17;;;;;;;18.07;17.07;;;;;;;16.40;100.00;102070.50;5088632;28;20422;-42
2023/08/22 00:11:45;;;;;;;17.80;17.00;;;;;;;16.39;100.00;102060.78;5089439;28;20432;-42
2023/08/22 00:14:13;;;;;;;19.00;17.80;;;;;;;16.43;100.00;102062.00;5088276;28;20493;-42
2023/08/22 00:16:41;;;;;;;18.20;17.20;;;;;;;16.46;100.00;102072.38;5089453;28;20513;-42
2023/08/22 00:19:10;;;;;;;17.77;16.97;;;;;;;16.48;100.00;102070.34;5089760;28;20469;-46
2023/08/22 00:21:38;;;;;;;18.67;17.40;;;;;;;16.51;100.00;102064.53;5088512;28;20453;-42
2023/08/22 00:24:06;;;;;;;19.23;18.30;;;;;;;16.56;100.00;102056.69;5089016;28;20454;-44
2023/08/22 00:26:34;;;;;;;21.03;19.63;;;;;;;16.58;100.00;102051.94;5087983;28;20989;-42
2023/08/22 00:29:02;;;;;;;19.70;18.60;;;;;;;16.59;100.00;102040.13;5089329;28;20479;-46
2023/08/22 00:31:29;;;;;;;21.73;20.13;;;;;;;16.62;100.00;102036.19;5090220;28;20534;-42
2023/08/22 00:33:58;;;;;;;22.43;20.77;;;;;;;16.64;100.00;102026.88;5088548;28;20455;-43
2023/08/22 00:36:27;;;;;;;22.07;20.73;;;;;;;16.66;100.00;102030.22;5092314;28;20495;-42
2023/08/22 00:38:55;;;;;;;21.00;20.00;;;;;;;16.69;100.00;102023.59;5093707;28;20472;-43
2023/08/22 00:41:23;;;;;;;22.70;21.47;;;;;;;16.68;100.00;102016.53;5092389;28;20834;-43
2023/08/22 00:43:50;;;;;;;20.37;19.07;;;;;;;16.71;100.00;102013.41;5094012;28;20481;-46
2023/08/22 00:46:20;;;;;;;23.17;21.47;;;;;;;16.72;100.00;102015.94;5094038;28;20487;-46
2023/08/22 00:48:48;;;;;;;22.00;20.80;;;;;;;16.74;100.00;102024.63;5094181;28;20853;-43
2023/08/22 00:51:17;;;;;;;22.60;21.40;;;;;;;16.74;100.00;102032.69;5092103;28;20469;-43
2023/08/22 00:53:48;;;;;;;24.33;22.77;;;;;;;16.76;100.00;102037.88;5092593;28;20477;-42
2023/08/22 00:56:16;;;;;;;20.83;19.70;;;;;;;16.77;100.00;102042.22;5092341;28;20515;-46
2023/08/22 00:58:44;;;;;;;22.47;21.17;;;;;;;16.78;100.00;102027.75;5092728;28;20808;-44
2023/08/22 01:01:11;;;;;;;25.07;23.30;;;;;;;16.77;100.00;102028.75;5092145;28;20431;-42
2023/08/22 01:03:39;;;;;;;23.57;22.27;;;;;;;16.79;100.00;102013.22;5093594;28;20453;-44
2023/08/22 01:06:14;;;;;;;23.10;21.90;;;;;;;16.80;100.00;102033.75;5092700;28;20433;-42
2023/08/22 01:08:47;;;;;;;23.93;22.03;;;;;;;16.79;100.00;102030.22;5092249;28;20512;-44
2023/08/22 01:11:23;;;;;;;23.90;22.40;;;;;;;16.79;100.00;102023.97;5092665;28;20457;-44
2023/08/22 01:13:53;;;;;;;21.47;20.40;;;;;;;16.79;100.00;102022.13;5092572;28;20510;-44
2023/08/22 01:16:21;;;;;;;21.83;20.47;;;;;;;16.81;100.00;102035.41;5091914;28;20429;-44
2023/08/22 01:18:49;;;;;;;22.00;20.70;;;;;;;16.85;100.00;102025.84;5093322;28;20472;-44
2023/08/22 01:21:18;;;;;;;22.90;21.70;;;;;;;16.86;100.00;102012.19;5093149;28;20445;-42
2023/08/22 01:23:47;;;;;;;24.10;22.70;;;;;;;16.88;100.00;102017.34;5093097;28;20455;-42
2023/08/22 01:26:16;;;;;;;24.33;22.50;;;;;;;16.89;100.00;102006.38;5092611;28;20436;-45
2023/08/22 01:28:47;;;;;;;24.83;22.90;;;;;;;16.91;100.00;102022.34;5092945;28;21008;-44
2023/08/22 01:31:22;;;;;;;23.50;22.40;;;;;;;16.92;100.00;102021.31;5092572;28;20425;-43
2023/08/22 01:33:56;;;;;;;22.33;21.23;;;;;;;16.91;100.00;102020.47;5091032;28;20537;-44
2023/08/22 01:36:25;;;;;;;24.20;22.83;;;;;;;16.92;100.00;102021.31;5093014;28;21201;-42
2023/08/22 01:38:55;;;;;;;23.57;22.37;;;;;;;16.94;100.00;102019.22;5091017;28;20996;-42
2023/08/22 01:41:23;;;;;;;23.93;22.70;;;;;;;16.95;100.00;102015.50;5091897;28;20486;-42
2023/08/22 01:43:51;;;;;;;25.43;23.83;;;;;;;16.94;100.00;102008.44;5092626;28;20503;-42
2023/08/22 01:46:19;;;;;;;23.60;22.40;;;;;;;16.94;100.00;102008.44;5092536;28;20811;-45
2023/08/22 01:48:47;;;;;;;25.63;23.80;;;;;;;16.95;100.00;102007.41;5091287;28;20453;-44
2023/08/22 01:51:14;;;;;;;25.93;24.40;;;;;;;16.93;100.00;102010.34;5092452;28;20437;-42
2023/08/22 01:53:43;;;;;;;26.07;24.57;;;;;;;16.93;100.00;101998.72;5092079;28;20455;-43
2023/08/22 01:56:12;;;;;;;27.80;25.90;;;;;;;16.92;100.00;101987.13;5091453;28;20945;-42
2023/08/22 01:58:39;;;;;;;27.03;25.63;;;;;;;16.91;100.00;101988.13;5090855;28;20442;-43
2023/08/22 02:01:10;;;;;;;24.40;22.93;;;;;;;16.93;100.00;101990.66;5090864;28;20994;-44
2023/08/22 02:03:39;;;;;;;24.13;22.93;;;;;;;16.93;100.00;101999.56;5091638;28;20485;-44
2023/08/22 02:06:07;;;;;;;25.43;24.03;;;;;;;16.93;100.00;101996.03;5092094;28;20433;-43
2023/08/22 02:08:35;;;;;;;26.50;24.70;;;;;;;16.92;100.00;101984.41;5092059;28;20442;-44
2023/08/22 02:11:02;;;;;;;27.50;25.90;;;;;;;16.91;100.00;101988.13;5091894;28;20922;-44
2023/08/22 02:13:31;;;;;;;26.67;24.97;;;;;;;16.90;100.00;101986.50;5089939;28;20460;-42
2023/08/22 02:16:00;;;;;;;26.90;25.50;;;;;;;16.88;100.00;101985.88;5091923;28;20430;-42
2023/08/22 02:18:28;;;;;;;24.90;23.70;;;;;;;16.86;100.00;101976.34;5091023;28;20445;-42
2023/08/22 02:20:58;;;;;;;26.70;25.20;;;;;;;16.84;100.00;101963.09;5090537;28;21096;-42
2023/08/22 02:23:26;;;;;;;26.00;24.37;;;;;;;16.82;100.00;101957.06;5090546;28;20805;-42
2023/08/22 02:25:55;;;;;;;26.23;24.93;;;;;;;16.80;100.00;101951.06;5092394;28;20819;-42
2023/08/22 02:28:22;;;;;;;25.53;24.33;;;;;;;16.77;100.00;101954.16;5090258;28;20510;-44
2023/08/22 02:30:56;;;;;;;26.90;25.60;;;;;;;16.76;100.00;101947.13;5091055;28;20426;-42
2023/08/22 02:33:23;;;;;;;26.10;24.80;;;;;;;16.75;100.00;101942.78;5090473;28;20449;-42
2023/08/22 02:35:51;;;;;;;27.40;26.00;;;;;;;16.72;100.00;101945.88;5091191;28;20483;-42
2023/08/22 02:38:19;;;;;;;26.87;25.47;;;;;;;16.69;100.00;101946.31;5092705;28;20457;-44
2023/08/22 02:40:47;;;;;;;26.40;24.90;;;;;;;16.70;100.00;101939.03;5090437;28;20465;-44
2023/08/22 02:43:14;;;;;;;27.43;25.70;;;;;;;16.67;100.00;101945.66;5090715;28;20429;-42
2023/08/22 02:45:44;;;;;;;27.47;25.97;;;;;;;16.66;100.00;101946.72;5092955;28;20482;-43
2023/08/22 02:48:14;;;;;;;27.07;25.53;;;;;;;16.64;100.00;101953.31;5098574;28;20487;-42
2023/08/22 02:50:41;;;;;;;26.70;24.73;;;;;;;16.63;100.00;101949.00;5097443;28;20422;-42
2023/08/22 02:53:14;;;;;;;26.73;25.40;;;;;;;16.63;100.00;101947.13;5097075;28;20857;-45
2023/08/22 02:55:42;;;;;;;26.63;25.17;;;;;;;16.62;100.00;101945.47;5097756;28;20456;-43
2023/08/22 02:58:10;;;;;;;28.77;27.13;;;;;;;16.63;100.00;101943.59;5097672;28;20845;-42
2023/08/22 03:00:37;;;;;;;28.10;26.53;;;;;;;16.62;100.00;101952.72;5098219;28;20702;-46
2023/08/22 03:03:05;;;;;;;26.83;25.53;;;;;;;16.62;100.00;101963.47;5097850;28;21165;-42
2023/08/22 03:05:34;;;;;;;27.30;26.10;;;;;;;16.60;100.00;101958.31;5098097;28;20465;-44
2023/08/22 03:08:02;;;;;;;26.70;25.53;;;;;;;16.59;100.00;101959.34;5098225;28;20912;-42
2023/08/22 03:10:30;;;;;;;29.03;27.50;;;;;;;16.57;100.00;101943.41;5097291;28;20440;-46
2023/08/22 03:12:58;;;;;;;28.40;26.90;;;;;;;16.55;100.00;101944.63;5097734;28;20436;-42
2023/08/22 03:15:25;;;;;;;27.00;25.80;;;;;;;16.55;100.00;101941.94;5097113;28;20533;-42
2023/08/22 03:17:53;;;;;;;26.80;25.50;;;;;;;16.54;100.00;101941.13;5097066;28;20460;-42
2023/08/22 03:20:20;;;;;;;27.93;26.53;;;;;;;16.52;100.00;101948.53;5097794;28;20687;-47
2023/08/22 03:22:49;;;;;;;30.27;28.47;;;;;;;16.48;100.00;101947.31;5097352;28;20434;-42
2023/08/22 03:25:17;;;;;;;28.33;27.13;;;;;;;16.45;100.00;101949.56;5096730;28;20460;-47
2023/08/22 03:27:45;;;;;;;29.97;28.30;;;;;;;16.40;100.00;101952.88;5097245;28;20449;-42
2023/08/22 03:30:12;;;;;;;29.20;27.90;;;;;;;16.35;100.00;101943.75;5096853;28;20425;-44
2023/08/22 03:32:40;;;;;;;31.90;30.50;;;;;;;16.27;100.00;101947.47;5096792;28;20494;-43
2023/08/22 03:35:09;;;;;;;32.50;30.93;;;;;;;16.20;100.00;101949.31;5096482;28;20457;-44
2023/08/22 03:37:36;;;;;;;32.37;30.73;;;;;;;16.14;100.00;101947.44;5096966;28;20457;-47
2023/08/22 03:40:07;;;;;;;32.00;30.70;;;;;;;16.08;100.00;101947.44;5096051;28;20877;-44
2023/08/22 03:42:35;;;;;;;35.90;33.90;;;;;;;16.02;100.00;101944.53;5096969;28;20421;-42
2023/08/22 03:45:02;;;;;;;36.20;34.27;;;;;;;15.96;100.00;101947.19;5096269;28;20457;-45
2023/08/22 03:47:30;;;;;;;37.80;35.90;;;;;;;15.89;100.00;101944.47;5097518;28;20457;-44
2023/08/22 03:49:58;;;;;;;37.93;35.97;;;;;;;15.85;100.00;101945.09;5096395;28;20516;-45
2023/08/22 03:52:26;;;;;;;36.37;34.00;;;;;;;15.80;100.00;101937.63;5096957;28;20437;-44
2023/08/22 03:54:53;;;;;;;34.53;32.83;;;;;;;15.78;100.00;101944.22;5097309;28;20929;-43
2023/08/22 03:57:23;;;;;;;35.60;33.70;;;;;;;15.75;100.00;101948.16;5097123;28;20445;-43
2023/08/22 03:59:50;;;;;;;35.23;33.53;;;;;;;15.73;100.00;101946.69;5096016;28;20536;-45
2023/08/22 04:02:19;;;;;;;34.40;32.90;;;;;;;15.70;100.00;101939.88;5096452;28;20453;-43
2023/08/22 04:04:47;;;;;;;35.53;33.90;;;;;;;15.67;100.00;101936.75;5096160;28;20521;-43
2023/08/22 04:07:14;;;;;;;35.50;34.00;;;;;;;15.64;100.00;101935.31;5096555;28;20449;-44
2023/08/22 04:09:42;;;;;;;36.27;34.33;;;;;;;15.61;100.00;101924.09;5095700;28;20486;-43
2023/08/22 04:12:10;;;;;;;33.37;31.93;;;;;;;15.60;100.00;101927.81;5095779;28;20494;-40
2023/08/22 04:14:39;;;;;;;32.33;30.67;;;;;;;15.59;100.00;101928.88;5095479;28;20461;-43
2023/08/22 04:17:06;;;;;;;29.67;28.37;;;;;;;15.62;100.00;101931.97;5096289;28;20459;-44
2023/08/22 04:19:34;;;;;;;31.00;29.40;;;;;;;15.65;100.00;101931.56;5096707;28;20474;-41
2023/08/22 04:22:02;;;;;;;29.80;28.50;;;;;;;15.69;100.00;101932.00;5096137;28;20476;-42
2023/08/22 04:24:29;;;;;;;31.40;30.03;;;;;;;15.69;100.00;101926.63;5095646;28;20540;-42
2023/08/22 04:26:57;;;;;;;30.93;29.53;;;;;;;15.70;100.00;101930.97;5096598;28;20550;-41
2023/08/22 04:29:25;;;;;;;30.97;29.57;;;;;;;15.71;100.00;101925.38;5096924;28;20433;-41
2023/08/22 04:31:56;;;;;;;30.03;28.73;;;;;;;15.76;100.00;101912.19;5096623;28;20476;-41
2023/08/22 04:34:24;;;;;;;29.60;28.10;;;;;;;15.81;100.00;101914.25;5095908;28;20553;-41
2023/08/22 04:36:51;;;;;;;29.87;28.47;;;;;;;15.89;100.00;101919.44;5096343;28;20460;-41
2023/08/22 04:39:19;;;;;;;29.40;28.10;;;;;;;16.01;100.00;101923.19;5096220;28;20482;-41
2023/08/22 04:41:50;;;;;;;27.30;26.00;;;;;;;16.10;100.00;101907.72;5096272;28;20512;-41
2023/08/22 04:44:17;;;;;;;27.57;26.07;;;;;;;16.20;100.00;101905.44;5096143;28;20526;-45
2023/08/22 04:46:45;;;;;;;29.03;27.60;;;;;;;16.28;100.00;101900.66;5095843;28;20426;-41
2023/08/22 04:49:15;;;;;;;26.70;25.60;;;;;;;16.32;100.00;101906.47;5096220;28;20428;-43
2023/08/22 04:51:43;;;;;;;26.27;24.97;;;;;;;16.42;100.00;101896.13;5096886;28;20875;-42
2023/08/22 04:54:11;;;;;;;26.33;25.00;;;;;;;16.51;100.00;101890.34;5095887;28;20518;-42
2023/08/22 04:56:38;;;;;;;26.80;25.50;;;;;;;16.66;100.00;101892.00;5097222;28;20520;-43
2023/08/22 04:59:06;;;;;;;27.07;25.40;;;;;;;16.80;100.00;101890.97;5097040;28;20425;-44
2023/08/22 05:01:34;;;;;;;26.27;24.87;;;;;;;17.05;100.00;101903.53;5097329;28;20548;-42
2023/08/22 05:04:02;;;;;;;23.97;22.77;;;;;;;17.74;100.00;101902.91;5095737;28;20457;-41
2023/08/22 05:06:31;;;;;;;23.13;22.00;;;;;;;18.31;100.00;101896.50;5096640;28;20433;-41
2023/08/22 05:08:59;;;;;;;22.70;21.60;;;;;;;18.85;100.00;101909.38;5096334;28;20428;-43
2023/08/22 05:11:26;;;;;;;23.70;22.53;;;;;;;18.97;100.00;101902.19;5096251;28;20457;-42
2023/08/22 05:13:54;;;;;;;22.73;21.53;;;;;;;19.19;100.00;101905.28;5096269;28;20457;-41
2023/08/22 05:16:22;;;;;;;24.50;23.40;;;;;;;19.68;100.00;101902.41;5097927;28;20425;-45
2023/08/22 05:18:50;;;;;;;23.17;22.17;;;;;;;19.96;100.00;101899.09;5096826;28;20751;-43
2023/08/22 05:21:18;;;;;;;23.67;22.57;;;;;;;20.25;100.00;101898.28;5097090;28;20796;-43
2023/08/22 05:23:47;;;;;;;24.97;23.77;;;;;;;20.69;100.00;101890.69;5098137;28;20463;-44
2023/08/22 05:26:15;;;;;;;23.07;21.67;;;;;;;20.83;100.00;101892.09;5091930;28;20489;-44
2023/08/22 05:28:43;;;;;;;22.20;21.20;;;;;;;20.96;100.00;101889.16;5099088;28;20452;-41
2023/08/22 05:31:19;;;;;;;20.37;19.27;;;;;;;21.23;100.00;101893.03;5099558;28;20464;-43
2023/08/22 05:33:47;;;;;;;22.97;21.90;;;;;;;21.39;100.00;101894.16;5098913;28;20455;-42
2023/08/22 05:36:14;;;;;;;20.23;19.33;;;;;;;21.22;100.00;101887.81;5099186;28;20429;-43
2023/08/22 05:38:42;;;;;;;20.20;19.00;;;;;;;21.08;100.00;101891.84;5100111;28;20451;-42
2023/08/22 05:41:11;;;;;;;22.33;20.80;;;;;;;20.93;100.00;101885.03;5100202;28;20577;-43
2023/08/22 05:43:39;;;;;;;21.33;20.33;;;;;;;20.78;100.00;101881.13;5098869;28;20461;-41
2023/08/22 05:46:07;;;;;;;20.83;19.93;;;;;;;20.62;100.00;101882.66;5100229;28;20496;-44
2023/08/22 05:48:35;;;;;;;21.03;19.70;;;;;;;20.57;100.00;101879.00;5099953;28;21007;-44
2023/08/22 05:51:03;;;;;;;20.67;19.50;;;;;;;20.89;100.00;101891.13;5099565;28;20421;-42
2023/08/22 05:53:31;;;;;;;19.47;18.37;;;;;;;21.03;100.00;101875.47;5098064;28;20437;-43
2023/08/22 05:55:59;;;;;;;20.53;19.33;;;;;;;21.55;100.00;101868.16;5098752;28;20444;-42
2023/08/22 05:58:28;;;;;;;19.27;18.47;;;;;;;22.10;100.00;101871.94;5099508;28;21012;-45
2023/08/22 06:00:55;;;;;;;21.70;20.13;;;;;;;22.83;100.00;101862.75;5099565;28;20670;-43
2023/08/22 06:03:23;;;;;;;21.33;19.93;;;;;;;23.54;100.00;101862.63;5098639;28;20429;-42
2023/08/22 06:05:51;;;;;;;17.10;16.17;;;;;;;24.03;100.00;101868.00;5099345;28;20440;-41
2023/08/22 06:08:19;;;;;;;16.40;15.27;;;;;;;24.35;100.00;101859.84;5099392;28;20469;-45
2023/08/22 06:10:47;;;;;;;15.40;14.30;;;;;;;24.52;100.00;101860.56;5099502;28;20429;-47
2023/08/22 06:13:15;;;;;;;13.50;12.60;;;;;;;24.66;100.00;101857.09;5098655;28;20487;-46
2023/08/22 06:15:44;;;;;;;12.10;11.10;;;;;;;25.02;100.00;101855.41;5098960;28;20452;-44
2023/08/22 06:18:11;;;;;;;9.87;9.23;;;;;;;25.53;100.00;101845.53;5096858;28;20460;-46
2023/08/22 06:20:40;;;;;;;8.00;7.63;;;;;;;26.05;100.00;101855.44;5097129;28;20833;-40
2023/08/22 06:23:07;;;;;;;7.80;7.10;;;;;;;26.36;100.00;101848.91;5096014;28;20473;-44
2023/08/22 06:25:36;;;;;;;8.00;7.30;;;;;;;26.08;99.71;101852.16;5096316;28;20465;-45
2023/08/22 06:28:04;;;;;;;8.60;8.00;;;;;;;26.65;97.18;101849.13;5097752;28;20617;-45
2023/08/22 06:30:31;;;;;;;7.87;7.20;;;;;;;27.30;96.87;101850.88;5096691;28;20501;-43
2023/08/22 06:33:00;;;;;;;8.00;7.40;;;;;;;27.72;89.08;101848.44;5096322;28;20513;-41
2023/08/22 06:35:28;;;;;;;7.33;6.63;;;;;;;28.13;89.40;101845.44;5097241;28;20466;-46
2023/08/22 06:37:57;;;;;;;6.77;6.20;;;;;;;28.03;83.64;101840.81;5098611;28;20460;-42
2023/08/22 06:40:24;;;;;;;7.70;7.20;;;;;;;27.84;82.95;101846.16;5097296;28;20451;-44
2023/08/22 06:42:52;;;;;;;8.03;6.80;;;;;;;27.90;81.08;101855.16;5097982;28;20479;-42
2023/08/22 06:45:20;;;;;;;6.33;5.73;;;;;;;28.12;82.03;101855.59;5097438;28;21058;-45
2023/08/22 06:47:47;;;;;;;7.13;6.60;;;;;;;28.14;78.22;101860.78;5096961;28;20449;-43
2023/08/22 06:50:17;;;;;;;8.17;7.30;;;;;;;28.20;74.12;101862.38;5096850;28;20433;-47
2023/08/22 06:52:44;;;;;;;7.43;6.83;;;;;;;27.94;78.97;101859.81;5097105;28;20469;-42
2023/08/22 06:55:12;;;;;;;7.47;6.97;;;;;;;27.74;79.62;101859.13;5097438;28;20461;-40
2023/08/22 06:57:40;;;;;;;6.50;5.97;;;;;;;27.96;80.59;101854.03;5098341;28;20449;-43
2023/08/22 07:00:13;;;;;;;10.13;7.20;;;;;;;28.01;77.36;101851.28;5097614;28;20429;-43
2023/08/22 07:02:41;;;;;;;7.90;7.13;;;;;;;28.10;81.83;101849.59;5097408;28;20471;-42
2023/08/22 07:05:09;;;;;;;7.40;6.70;;;;;;;28.70;81.75;101850.97;5097143;28;20544;-41
2023/08/22 07:07:39;;;;;;;6.50;6.00;;;;;;;29.31;80.48;101850.25;5095939;28;20449;-43
2023/08/22 07:10:09;;;;;;;7.57;6.77;;;;;;;29.44;76.87;101855.03;5096522;28;20241;-40
2023/08/22 07:12:37;;;;;;;7.73;6.53;;;;;;;28.96;77.32;101846.00;5096277;28;20444;-47
2023/08/22 07:15:08;;;;;;;8.17;7.50;;;;;;;28.66;72.25;101858.13;5097361;28;20460;-42
2023/08/22 07:17:36;;;;;;;7.87;7.20;;;;;;;28.89;74.24;101856.50;5096290;28;20501;-43
2023/08/22 07:20:04;;;;;;;7.60;6.10;;;;;;;29.07;75.37;101853.00;5095776;28;20252;-44
2023/08/22 07:22:33;;;;;;;6.33;5.73;;;;;;;29.25;76.96;101854.16;5096251;28;20725;-45
2023/08/22 07:25:03;;;;;;;7.30;6.60;;;;;;;29.29;71.38;101858.78;5095013;28;20486;-43
2023/08/22 07:27:31;;;;;;;7.00;6.50;;;;;;;28.98;71.89;101857.50;5096077;28;20268;-47
2023/08/22 07:29:59;;;;;;;7.83;7.33;;;;;;;28.56;72.43;101861.75;5096662;28;20213;-47
2023/08/22 07:32:26;;;;;;;10.03;9.23;;;;;;;28.00;73.87;101861.41;5092993;28;20191;-44
2023/08/22 07:34:54;;;;;;;8.50;7.80;;;;;;;28.11;79.51;101867.66;5089052;28;20233;-41
2023/08/22 07:37:22;;;;;;;9.33;8.57;;;;;;;27.73;77.32;101871.19;5089335;28;20455;-41
2023/08/22 07:39:50;;;;;;;9.33;8.37;;;;;;;27.52;81.88;101864.19;5090306;28;20862;-41
2023/08/22 07:42:19;;;;;;;7.73;7.00;;;;;;;27.71;82.60;101867.94;5088902;28;20465;-45
2023/08/22 07:44:46;;;;;;;10.30;9.03;;;;;;;27.56;84.17;101870.75;5088277;28;20547;-42
2023/08/22 07:47:14;;;;;;;8.60;7.90;;;;;;;27.31;85.03;101872.50;5089315;28;20810;-42
2023/08/22 07:49:42;;;;;;;9.63;8.70;;;;;;;27.26;87.18;101871.69;5089039;28;20468;-45
2023/08/22 07:52:09;;;;;;;12.20;9.47;;;;;;;27.11;87.18;101879.97;5088837;28;20429;-42
2023/08/22 07:54:37;;;;;;;9.40;8.70;;;;;;;27.15;88.50;101876.38;5088833;28;20475;-41
2023/08/22 07:57:05;;;;;;;11.63;10.50;;;;;;;26.93;89.08;101879.50;5088993;28;20441;-42
2023/08/22 07:59:46;;;;;;;13.40;10.67;;;;;;;26.54;92.11;101878.44;5089130;28;20429;-43
2023/08/22 08:02:14;;;;;;;10.50;9.63;;;;;;;26.63;94.93;101871.31;5088519;28;20475;-42
2023/08/22 08:04:42;;;;;;;10.77;9.80;;;;;;;26.66;93.72;101878.13;5088393;28;20543;-42
2023/08/22 08:07:10;;;;;;;9.53;8.60;;;;;;;26.76;94.48;101880.88;5088821;28;20510;-43
2023/08/22 08:09:37;;;;;;;11.83;9.70;;;;;;;26.60;91.42;101885.53;5088936;28;20902;-43
2023/08/22 08:12:06;;;;;;;8.57;7.53;;;;;;;26.76;92.11;101878.13;5088233;28;20505;-43
2023/08/22 08:14:33;;;;;;;8.87;7.60;;;;;;;26.84;91.19;101878.41;5087969;28;20491;-43
2023/08/22 08:17:03;;;;;;;6.70;6.10;;;;;;;26.97;88.46;101878.94;5088335;28;20476;-47
2023/08/22 08:19:31;;;;;;;6.27;5.67;;;;;;;27.01;88.17;101886.28;5088754;28;20436;-45
2023/08/22 08:21:59;;;;;;;7.87;7.17;;;;;;;27.00;87.82;101881.91;5089263;28;20421;-42
2023/08/22 08:24:27;;;;;;;7.00;5.90;;;;;;;27.03;85.75;101886.81;5087840;28;20492;-43
2023/08/22 08:26:54;;;;;;;5.37;4.90;;;;;;;27.18;83.30;101883.25;5089345;28;21019;-45
2023/08/22 08:29:22;;;;;;;6.70;6.10;;;;;;;27.16;80.57;101885.41;5089105;28;20425;-44
2023/08/22 08:31:51;;;;;;;6.67;5.10;;;;;;;26.83;79.20;101889.63;5088341;28;20436;-41
2023/08/22 08:34:20;;;;;;;5.80;5.30;;;;;;;26.71;80.53;101883.59;5087665;28;20549;-43
2023/08/22 08:36:48;;;;;;;5.53;4.63;;;;;;;26.03;80.76;101884.97;5088215;28;20527;-45
2023/08/22 08:39:15;;;;;;;5.80;4.57;;;;;;;26.00;82.48;101890.97;5088265;28;20443;-47
2023/08/22 08:41:49;;;;;;;6.50;4.43;;;;;;;25.89;81.88;101883.84;5087955;28;20540;-42
2023/08/22 08:44:18;;;;;;;5.20;4.60;;;;;;;25.79;83.24;101881.91;5087885;28;20567;-42
2023/08/22 08:46:48;;;;;;;10.03;5.33;;;;;;;25.58;86.11;101881.06;5088123;28;20456;-44
2023/08/22 08:49:17;;;;;;;7.70;4.57;;;;;;;25.76;86.13;101885.19;5088208;28;20424;-44
2023/08/22 08:51:47;;;;;;;4.70;4.30;;;;;;;25.62;82.49;101882.16;5089022;28;20435;-45
2023/08/22 08:54:15;;;;;;;6.70;4.07;;;;;;;25.42;80.64;101886.72;5089129;28;20544;-47
2023/08/22 08:56:43;;;;;;;4.17;3.87;;;;;;;25.07;84.00;101890.09;5089577;28;20429;-45
2023/08/22 08:59:11;;;;;;;4.50;4.10;;;;;;;25.13;86.25;101889.03;5092187;28;20437;-45
2023/08/22 09:01:43;;;;;;;4.43;4.13;;;;;;;25.26;87.99;101880.38;5093391;28;20433;-47
2023/08/22 09:04:11;;;;;;;4.20;3.80;;;;;;;25.22;87.53;101887.44;5091454;28;20469;-42
2023/08/22 09:06:39;;;;;;;3.50;3.30;;;;;;;25.20;81.55;101893.19;5092412;28;20432;-44
2023/08/22 09:09:09;;;;;;;3.63;3.30;;;;;;;25.30;83.41;101876.00;5092088;28;20946;-42
2023/08/22 09:11:41;;;;;;;6.23;4.40;;;;;;;25.58;90.05;101880.22;5092171;28;20428;-42
2023/08/22 09:14:19;;;;;;;4.33;3.93;;;;;;;25.44;84.70;101887.25;5091897;28;20452;-42
2023/08/22 09:16:46;;;;;;;3.50;3.20;;;;;;;25.41;85.12;101885.06;5091950;28;20539;-47
2023/08/22 09:19:14;;;;;;;3.37;3.17;;;;;;;25.39;81.36;101882.59;5092044;28;20927;-42
2023/08/22 09:21:56;;;;;;;4.13;3.73;;;;;;;25.42;83.59;101881.25;5091634;28;20444;-42
2023/08/22 09:24:26;;;;;;;3.90;3.00;;;;;;;25.82;83.94;101893.13;5091299;28;20453;-41
2023/08/22 09:26:54;;;;;;;6.43;3.10;;;;;;;25.99;77.33;101897.53;5091361;28;20444;-44
2023/08/22 09:29:26;;;;;;;3.10;2.80;;;;;;;26.29;78.64;101895.66;5091697;28;21163;-48
2023/08/22 09:31:57;;;;;;;3.70;3.20;;;;;;;26.68;76.29;101897.81;5091348;28;20433;-44
2023/08/22 09:34:25;;;;;;;3.30;2.50;;;;;;;26.76;75.01;101884.41;5091640;28;20547;-45
2023/08/22 09:36:54;;;;;;;3.30;3.00;;;;;;;26.76;69.66;101883.59;5091537;28;20445;-42
2023/08/22 09:39:23;;;;;;;2.70;2.50;;;;;;;27.01;70.75;101891.75;5091775;28;20522;-43
2023/08/22 09:41:53;;;;;;;2.57;2.47;;;;;;;26.94;67.33;101880.31;5091367;28;20421;-42
2023/08/22 09:44:24;;;;;;;2.80;2.60;;;;;;;27.08;67.25;101889.56;5090824;28;20476;-42
2023/08/22 09:46:53;;;;;;;2.90;2.67;;;;;;;27.21;65.93;101879.94;5092530;28;20441;-43
2023/08/22 09:49:21;;;;;;;3.87;3.47;;;;;;;27.01;66.77;101888.22;5091751;28;20511;-45
2023/08/22 09:51:50;;;;;;;3.83;2.53;;;;;;;27.14;65.76;101880.25;5090686;28;20428;-42
2023/08/22 09:54:18;;;;;;;2.90;2.70;;;;;;;27.02;66.57;101878.91;5090885;28;20449;-43
2023/08/22 09:56:46;;;;;;;4.73;3.07;;;;;;;27.29;66.80;101877.44;5090732;28;21187;-42
2023/08/22 09:59:18;;;;;;;4.00;3.20;;;;;;;27.32;64.04;101881.53;5091640;28;20514;-42
2023/08/22 10:01:48;;;;;;;3.30;3.10;;;;;;;27.07;65.14;101882.44;5090874;28;20531;-45
2023/08/22 10:04:18;;;;;;;3.63;2.80;;;;;;;27.11;66.99;101875.31;5090127;28;20496;-43
2023/08/22 10:06:48;;;;;;;3.37;2.43;;;;;;;27.16;67.83;101877.19;5091218;28;21110;-44
2023/08/22 10:09:19;;;;;;;4.37;2.50;;;;;;;27.27;66.96;101874.13;5089872;28;20433;-42
2023/08/22 10:11:51;;;;;;;2.90;2.40;;;;;;;27.56;64.75;101879.81;5090697;28;20532;-45
2023/08/22 10:14:24;;;;;;;4.23;2.70;;;;;;;27.44;62.16;101876.56;5090860;28;20513;-46
2023/08/22 10:16:55;;;;;;;2.73;2.53;;;;;;;27.56;64.83;101874.31;5090693;28;20859;-43
2023/08/22 10:19:24;;;;;;;2.50;2.40;;;;;;;26.76;61.80;101872.66;5090948;28;20433;-50
2023/08/22 10:21:53;;;;;;;3.10;2.37;;;;;;;27.18;64.29;101869.56;5090969;28;20992;-44
2023/08/22 10:24:27;;;;;;;2.83;2.63;;;;;;;26.92;63.66;101874.28;5090021;28;20490;-44
2023/08/22 10:27:03;;;;;;;2.60;2.43;;;;;;;26.97;64.02;101859.78;5090132;28;20451;-42
2023/08/22 10:29:35;;;;;;;2.70;2.50;;;;;;;27.19;65.39;101871.16;5091726;28;20425;-43
2023/08/22 10:32:22;;;;;;;3.10;2.90;;;;;;;27.43;63.64;101874.94;5089889;28;20975;-44
2023/08/22 10:35:18;;;;;;;3.20;2.93;;;;;;;27.43;60.68;101873.00;5090585;28;20461;-44
2023/08/22 10:37:48;;;;;;;4.50;2.80;;;;;;;27.61;62.82;101877.03;5090762;28;20441;-44
2023/08/22 10:40:34;;;;;;;3.30;3.00;;;;;;;27.58;58.79;101879.50;5090322;28;20425;-46
2023/08/22 10:43:21;;;;;;;3.00;2.80;;;;;;;27.70;60.99;101871.75;5090186;28;20433;-46
2023/08/22 10:45:52;;;;;;;4.03;3.00;;;;;;;27.88;58.89;101869.19;5090466;28;20440;-42
2023/08/22 10:48:22;;;;;;;2.70;2.50;;;;;;;27.88;58.27;101876.56;5090294;28;20487;-47
2023/08/22 10:50:51;;;;;;;3.03;2.70;;;;;;;27.98;57.00;101871.03;5090514;28;20429;-43
2023/08/22 10:53:27;;;;;;;3.50;3.10;;;;;;;28.03;57.57;101866.31;5089200;28;20922;-45
2023/08/22 10:55:56;;;;;;;3.10;2.90;;;;;;;28.03;56.81;101863.59;5090267;28;20843;-43
2023/08/22 10:58:35;;;;;;;2.70;2.50;;;;;;;28.05;56.20;101851.56;5090293;28;20457;-44
2023/08/22 11:01:06;;;;;;;2.93;2.73;;;;;;;28.07;53.81;101858.38;5090619;28;20425;-45
2023/08/22 11:03:34;;;;;;;3.03;2.70;;;;;;;28.09;58.01;101858.09;5089252;28;21017;-45
2023/08/22 11:06:10;;;;;;;2.60;2.50;;;;;;;28.09;57.44;101863.56;5090038;28;20428;-44
2023/08/22 11:08:38;;;;;;;5.33;2.80;;;;;;;28.21;55.81;101851.13;5090231;28;20483;-43
2023/08/22 11:11:06;;;;;;;2.73;2.50;;;;;;;28.16;55.07;101858.59;5089747;28;20429;-42
2023/08/22 11:13:38;;;;;;;4.00;2.60;;;;;;;27.94;54.89;101848.03;5089301;28;20502;-41
2023/08/22 11:16:11;;;;;;;2.63;2.20;;;;;;;27.96;55.93;101845.81;5089650;28;20551;-42
2023/08/22 11:18:40;;;;;;;2.30;2.10;;;;;;;27.96;56.38;101845.81;5089222;28;20514;-42
2023/08/22 11:21:08;;;;;;;2.40;2.20;;;;;;;27.91;54.75;101838.44;5089396;28;20431;-46